createdAt,value
2019-04-01T00:01:20.641Z,67.06
2019-04-01T00:03:48.134Z,67.43
2019-04-01T00:06:15.481Z,67.53
2019-04-01T00:08:42.701Z,67.48
2019-04-01T00:11:09.927Z,67.60
2019-04-01T00:13:37.161Z,67.82
2019-04-01T00:16:04.399Z,67.83
2019-04-01T00:18:31.669Z,68.09
2019-04-01T00:20:59.105Z,68.26
2019-04-01T00:23:26.835Z,68.51
2019-04-01T00:25:54.011Z,68.56
2019-04-01T00:28:21.067Z,68.52
2019-04-01T00:30:48.434Z,68.48
2019-04-01T00:33:15.523Z,68.84
2019-04-01T00:35:42.685Z,68.88
2019-04-01T00:38:09.923Z,68.80
2019-04-01T00:40:37.448Z,68.69
2019-04-01T00:43:24.662Z,68.93
2019-04-01T00:45:52.378Z,69.30
2019-04-01T00:48:19.555Z,69.59
2019-04-01T00:50:46.776Z,69.66
2019-04-01T00:53:13.946Z,69.62
2019-04-01T00:55:41.114Z,69.81
2019-04-01T00:58:08.424Z,70.25
2019-04-01T01:00:35.629Z,70.17
2019-04-01T01:03:02.945Z,70.33
2019-04-01T01:05:30.086Z,70.40
2019-04-01T01:07:57.275Z,70.32
2019-04-01T01:10:24.486Z,70.48
2019-04-01T01:12:51.697Z,70.42
2019-04-01T01:18:52.963Z,70.89
2019-04-01T01:21:20.282Z,71.12
2019-04-01T01:27:00.460Z,71.24
2019-04-01T01:35:48.900Z,71.67
2019-04-01T01:38:16.041Z,71.84
2019-04-01T01:59:02.707Z,71.74
2019-04-01T02:01:29.869Z,71.80
2019-04-01T02:04:37.889Z,72.19
2019-04-01T02:10:25.017Z,72.37
2019-04-01T02:12:52.117Z,72.43
2019-04-01T02:18:20.767Z,71.52
2019-04-01T02:21:07.484Z,71.62
2019-04-01T02:23:34.716Z,71.46
2019-04-01T02:26:42.705Z,71.55
2019-04-01T02:29:09.940Z,71.66
2019-04-01T02:31:37.611Z,71.96
2019-04-01T02:34:04.809Z,72.21
2019-04-01T02:36:32.028Z,71.97
2019-04-01T02:42:33.384Z,71.87
2019-04-01T02:45:00.965Z,71.84
2019-04-01T02:50:36.065Z,71.86
2019-04-01T02:53:44.062Z,71.47
2019-04-01T03:02:05.468Z,71.46
2019-04-01T03:04:32.656Z,71.79
2019-04-01T03:07:00.173Z,72.11
2019-04-01T03:09:27.429Z,71.44
2019-04-01T03:11:55.599Z,71.10
2019-04-01T03:14:23.481Z,71.03
2019-04-01T03:16:50.621Z,70.91
2019-04-01T03:19:19.868Z,71.21
2019-04-01T03:21:47.197Z,71.42
2019-04-01T03:24:15.135Z,71.58
2019-04-01T03:26:42.414Z,72.03
2019-04-01T03:29:09.894Z,71.37
2019-04-01T03:31:37.323Z,71.32
2019-04-01T03:34:04.669Z,71.53
2019-04-01T03:36:31.954Z,71.42
2019-04-01T03:41:55.414Z,71.52
2019-04-01T03:44:22.583Z,71.49
2019-04-01T03:46:49.661Z,72.06
2019-04-01T03:49:16.967Z,71.49
2019-04-01T03:51:44.142Z,71.69
2019-04-01T03:54:11.555Z,71.76
2019-04-01T03:56:38.828Z,71.78
2019-04-01T03:59:06.020Z,72.14
2019-04-01T04:01:33.379Z,72.25
2019-04-01T04:04:00.623Z,72.17
2019-04-01T04:06:28.193Z,71.92
2019-04-01T04:08:55.400Z,71.86
2019-04-01T04:11:22.713Z,71.86
2019-04-01T04:13:49.965Z,71.36
2019-04-01T04:16:17.155Z,71.66
2019-04-01T04:18:45.162Z,72.11
2019-04-01T04:21:12.349Z,72.34
2019-04-01T04:23:39.529Z,72.10
2019-04-01T04:26:07.156Z,71.98
2019-04-01T04:28:34.265Z,71.69
2019-04-01T04:31:01.427Z,71.22
2019-04-01T04:33:28.632Z,71.59
2019-04-01T04:35:55.813Z,71.81
2019-04-01T04:38:22.976Z,71.63
2019-04-01T04:40:50.199Z,71.55
2019-04-01T04:43:17.419Z,71.62
2019-04-01T04:45:44.477Z,71.61
2019-04-01T04:48:11.619Z,71.86
2019-04-01T04:50:38.667Z,71.75
2019-04-01T04:53:05.843Z,71.95
2019-04-01T04:55:33.059Z,72.15
2019-04-01T04:58:00.241Z,72.10
2019-04-01T05:00:27.395Z,72.21
2019-04-01T05:02:54.516Z,72.25
2019-04-01T05:05:22.015Z,71.80
2019-04-01T05:07:49.199Z,71.72
2019-04-01T05:10:16.617Z,71.92
2019-04-01T05:12:43.919Z,72.02
2019-04-01T05:15:12.059Z,71.67
2019-04-01T05:17:40.085Z,71.67
2019-04-01T05:20:07.493Z,71.30
2019-04-01T05:22:35.324Z,71.11
2019-04-01T05:25:02.753Z,70.83
2019-04-01T05:27:32.123Z,70.56
2019-04-01T05:30:01.601Z,70.07
2019-04-01T05:32:31.346Z,69.84
2019-04-01T05:35:02.438Z,69.59
2019-04-01T05:37:29.644Z,69.30
2019-04-01T05:39:57.274Z,68.60
2019-04-01T05:42:24.462Z,67.88
2019-04-01T05:44:51.742Z,66.14
2019-04-01T05:47:21.134Z,62.83
2019-04-01T05:49:48.419Z,60.62
2019-04-01T05:52:15.642Z,58.17
2019-04-01T05:54:43.300Z,54.91
2019-04-01T05:57:10.498Z,52.57
2019-04-01T05:59:37.692Z,50.23
2019-04-01T06:02:05.828Z,47.74
2019-04-01T06:04:33.025Z,43.87
2019-04-01T06:07:00.229Z,41.53
2019-04-01T06:09:27.979Z,41.63
2019-04-01T06:11:55.327Z,39.75
2019-04-01T06:14:22.482Z,38.36
2019-04-01T06:16:49.995Z,36.67
2019-04-01T06:19:17.268Z,36.35
2019-04-01T06:21:44.602Z,34.66
2019-04-01T06:24:12.038Z,33.04
2019-04-01T06:26:39.924Z,32.40
2019-04-01T06:29:07.116Z,30.26
2019-04-01T06:31:34.350Z,28.98
2019-04-01T06:34:02.018Z,28.23
2019-04-01T06:36:29.329Z,27.21
2019-04-01T06:38:56.403Z,26.13
2019-04-01T06:41:23.572Z,25.56
2019-04-01T06:46:17.466Z,22.86
2019-04-01T06:48:45.012Z,21.61
2019-04-01T06:51:12.347Z,20.79
2019-04-01T06:53:40.131Z,21.04
2019-04-01T06:56:07.574Z,20.58
2019-04-01T06:58:35.053Z,20.41
2019-04-01T07:01:02.443Z,20.81
2019-04-01T07:03:29.619Z,21.26
2019-04-01T07:05:56.683Z,19.83
2019-04-01T07:08:24.369Z,19.38
2019-04-01T07:10:52.135Z,18.84
2019-04-01T07:13:19.805Z,17.76
2019-04-01T07:15:47.367Z,17.81
2019-04-01T07:18:14.563Z,17.61
2019-04-01T07:20:41.904Z,17.55
2019-04-01T07:23:09.219Z,16.59
2019-04-01T07:25:36.749Z,16.27
2019-04-01T07:28:03.947Z,16.34
2019-04-01T07:30:31.596Z,15.59
2019-04-01T07:32:58.856Z,15.21
2019-04-01T07:35:26.009Z,14.46
2019-04-01T07:37:53.267Z,13.65
2019-04-01T07:40:20.545Z,13.50
2019-04-01T07:42:48.159Z,12.92
2019-04-01T07:45:15.497Z,12.91
2019-04-01T07:47:42.605Z,13.38
2019-04-01T07:50:12.344Z,13.92
2019-04-01T07:52:39.405Z,16.00
2019-04-01T07:55:06.805Z,18.06
2019-04-01T07:57:34.197Z,18.53
2019-04-01T08:00:01.627Z,17.02
2019-04-01T08:02:28.717Z,15.18
2019-04-01T08:04:55.971Z,13.25
2019-04-01T08:07:23.279Z,14.32
2019-04-01T08:09:51.336Z,13.31
2019-04-01T08:12:18.712Z,12.48
2019-04-01T08:14:45.959Z,12.95
2019-04-01T08:17:13.129Z,11.93
2019-04-01T08:19:40.296Z,11.29
2019-04-01T08:22:07.954Z,10.91
2019-04-01T08:24:35.269Z,11.48
2019-04-01T08:27:02.887Z,11.64
2019-04-01T08:29:30.897Z,11.44
2019-04-01T08:31:58.397Z,11.87
2019-04-01T08:34:25.727Z,12.22
2019-04-01T08:36:53.071Z,12.89
2019-04-01T08:39:20.375Z,13.90
2019-04-01T08:41:47.886Z,14.58
2019-04-01T08:44:16.016Z,14.16
2019-04-01T08:46:43.281Z,13.60
2019-04-01T08:49:10.437Z,13.12
2019-04-01T08:51:37.867Z,11.83
2019-04-01T08:54:05.096Z,10.79
2019-04-01T08:56:32.474Z,10.90
2019-04-01T08:59:00.169Z,11.61
2019-04-01T09:01:35.045Z,11.90
2019-04-01T09:03:56.572Z,11.41
2019-04-01T09:06:23.839Z,10.96
2019-04-01T09:08:52.886Z,12.39
2019-04-01T09:11:20.597Z,12.12
2019-04-01T09:13:48.531Z,11.56
2019-04-01T09:16:16.305Z,11.01
2019-04-01T09:18:43.613Z,10.91
2019-04-01T09:21:11.003Z,11.77
2019-04-01T09:23:38.236Z,11.54
2019-04-01T09:26:05.476Z,11.32
2019-04-01T09:28:32.705Z,12.95
2019-04-01T09:31:00.477Z,14.32
2019-04-01T09:33:27.777Z,14.77
2019-04-01T09:35:54.973Z,15.06
2019-04-01T09:38:22.191Z,15.48
2019-04-01T09:41:01.675Z,16.16
2019-04-01T09:47:02.418Z,19.95
2019-04-01T09:49:29.582Z,24.31
2019-04-01T09:51:56.725Z,28.08
2019-04-01T09:55:06.346Z,29.30
2019-04-01T09:57:54.124Z,30.82
2019-04-01T10:01:02.180Z,32.23
2019-04-01T10:03:29.348Z,32.94
2019-04-01T10:06:37.338Z,33.44
2019-04-01T10:12:25.569Z,33.56
2019-04-01T10:14:52.772Z,33.76
2019-04-01T10:17:19.848Z,34.87
2019-04-01T10:19:47.063Z,35.48
2019-04-01T10:22:14.256Z,35.57
2019-04-01T10:24:41.443Z,36.10
2019-04-01T10:27:08.647Z,36.73
2019-04-01T10:32:49.740Z,37.32
2019-04-01T10:41:17.012Z,36.31
2019-04-01T10:43:44.076Z,36.35
2019-04-01T10:46:12.431Z,36.36
2019-04-01T10:49:00.079Z,36.09
2019-04-01T10:51:27.257Z,35.86
2019-04-01T10:53:54.588Z,36.01
2019-04-01T10:56:29.378Z,36.92
2019-04-01T10:58:56.690Z,37.12
2019-04-01T11:01:31.703Z,36.71
2019-04-01T11:04:05.734Z,37.13
2019-04-01T11:06:33.298Z,37.00
2019-04-01T11:09:00.531Z,37.53
2019-04-01T11:11:27.720Z,37.68
2019-04-01T11:13:54.884Z,37.81
2019-04-01T11:16:22.072Z,37.52
2019-04-01T11:18:49.258Z,37.37
2019-04-01T11:21:16.816Z,37.16
2019-04-01T11:23:43.992Z,37.43
2019-04-01T11:26:11.203Z,36.93
2019-04-01T11:35:01.122Z,37.35
2019-04-01T11:37:28.342Z,37.29
2019-04-01T11:39:55.507Z,36.82
2019-04-01T11:42:23.212Z,37.18
2019-04-01T11:47:52.333Z,37.44
2019-04-01T11:50:19.549Z,37.81
2019-04-01T11:52:47.027Z,37.66
2019-04-01T11:55:14.927Z,37.18
2019-04-01T12:01:16.493Z,36.77
2019-04-01T12:03:43.629Z,36.63
2019-04-01T12:15:14.436Z,36.01
2019-04-01T12:17:42.228Z,35.64
2019-04-01T12:20:17.943Z,35.56
2019-04-01T12:22:45.922Z,35.58
2019-04-01T12:25:33.986Z,35.60
2019-04-01T12:28:01.076Z,35.50
2019-04-01T12:30:28.247Z,35.47
2019-04-01T12:35:56.682Z,35.68
2019-04-01T12:39:04.581Z,35.38
2019-04-01T12:41:47.377Z,35.05
2019-04-01T12:44:15.044Z,35.40
2019-04-01T12:46:42.243Z,35.31
2019-04-01T12:49:21.223Z,34.85
2019-04-01T12:51:49.066Z,35.53
2019-04-01T12:54:23.833Z,35.91
2019-04-01T12:56:51.029Z,36.01
2019-04-01T12:59:58.944Z,35.83
2019-04-01T13:08:17.774Z,35.96
2019-04-01T13:10:44.921Z,35.66
2019-04-01T13:16:37.983Z,35.66
2019-04-01T13:19:05.452Z,35.22
2019-04-01T13:21:34.618Z,34.97
2019-04-01T13:24:27.245Z,35.01
2019-04-01T13:26:54.490Z,35.24
2019-04-01T13:32:01.884Z,35.62
2019-04-01T13:34:43.086Z,35.19
2019-04-01T13:37:10.269Z,35.19
2019-04-01T13:39:37.490Z,35.16
2019-04-01T13:42:04.660Z,35.05
2019-04-01T13:44:37.191Z,34.91
2019-04-01T13:47:20.753Z,35.08
2019-04-01T13:50:28.837Z,35.12
2019-04-01T13:56:16.025Z,35.16
2019-04-01T13:58:43.270Z,34.67
2019-04-01T14:01:10.466Z,34.81
2019-04-01T14:07:02.302Z,34.89
2019-04-01T14:09:30.994Z,35.17
2019-04-01T14:12:04.906Z,35.30
2019-04-01T14:14:32.158Z,35.18
2019-04-01T14:16:59.340Z,34.92
2019-04-01T14:19:26.577Z,34.86
2019-04-01T14:22:13.257Z,35.06
2019-04-01T14:24:42.593Z,35.29
2019-04-01T14:31:01.328Z,34.86
2019-04-01T14:36:30.585Z,34.89
2019-04-01T14:38:57.861Z,34.70
2019-04-01T14:47:57.053Z,34.62
2019-04-01T14:51:03.239Z,34.78
2019-04-01T14:53:30.532Z,34.68
2019-04-01T14:55:59.008Z,34.69
2019-04-01T14:59:04.511Z,34.85
2019-04-01T15:10:46.837Z,34.00
2019-04-01T15:13:14.045Z,34.17
2019-04-01T15:15:41.205Z,34.47
2019-04-01T15:18:09.968Z,34.93
2019-04-01T15:20:57.577Z,34.85
2019-04-01T15:23:26.379Z,34.76
2019-04-01T15:26:44.622Z,35.49
2019-04-01T15:29:31.257Z,35.93
2019-04-01T15:31:58.445Z,35.31
2019-04-01T15:34:25.626Z,35.25
2019-04-01T15:36:52.835Z,35.34
2019-04-01T15:39:32.343Z,35.72
2019-04-01T15:41:59.965Z,35.98
2019-04-01T15:47:26.743Z,36.32
2019-04-01T15:53:28.162Z,35.60
2019-04-01T15:55:55.445Z,35.57
2019-04-01T15:58:22.627Z,35.76
2019-04-01T16:00:49.856Z,35.83
2019-04-01T16:12:16.071Z,36.51
2019-04-01T16:15:32.285Z,36.03
2019-04-01T16:18:38.541Z,36.58
2019-04-01T16:21:05.726Z,36.87
2019-04-01T16:23:32.868Z,36.93
2019-04-01T16:26:19.590Z,37.23
2019-04-01T16:28:46.735Z,37.06
2019-04-01T16:31:13.963Z,37.09
2019-04-01T16:33:41.146Z,37.14
2019-04-01T16:36:08.347Z,37.25
2019-04-01T16:38:35.461Z,36.97
2019-04-01T16:41:15.807Z,36.60
2019-04-01T16:43:43.636Z,36.64
2019-04-01T16:46:12.131Z,36.46
2019-04-01T16:48:46.555Z,36.41
2019-04-01T16:51:20.881Z,36.28
2019-04-01T16:53:48.171Z,36.12
2019-04-01T17:02:18.354Z,36.33
2019-04-01T17:04:46.192Z,36.60
2019-04-01T17:07:13.598Z,36.73
2019-04-01T17:09:41.079Z,37.02
2019-04-01T17:12:10.503Z,37.46
2019-04-01T17:14:37.838Z,37.52
2019-04-01T17:17:05.376Z,37.86
2019-04-01T17:19:32.554Z,38.33
2019-04-01T17:21:59.731Z,38.61
2019-04-01T17:24:27.927Z,38.90
2019-04-01T17:27:03.941Z,39.07
2019-04-01T17:29:31.906Z,38.94
2019-04-01T17:31:59.345Z,39.01
2019-04-01T17:34:26.522Z,39.06
2019-04-01T17:36:54.065Z,39.18
2019-04-01T17:39:21.329Z,39.54
2019-04-01T17:41:51.795Z,40.27
2019-04-01T17:44:19.035Z,40.82
2019-04-01T17:46:46.211Z,41.27
2019-04-01T17:49:13.456Z,41.44
2019-04-01T17:51:40.816Z,41.76
2019-04-01T17:54:08.288Z,41.80
2019-04-01T17:56:35.655Z,42.13
2019-04-01T17:59:02.922Z,42.06
2019-04-01T18:01:30.079Z,42.59
2019-04-01T18:03:57.468Z,41.87
2019-04-01T18:06:25.021Z,41.74
2019-04-01T18:08:52.329Z,42.27
2019-04-01T18:11:19.569Z,42.50
2019-04-01T18:13:47.047Z,42.69
2019-04-01T18:16:14.608Z,43.26
2019-04-01T18:18:41.829Z,43.55
2019-04-01T18:21:09.405Z,44.58
2019-04-01T18:23:36.678Z,44.52
2019-04-01T18:26:04.079Z,44.40
2019-04-01T18:28:31.282Z,44.65
2019-04-01T18:30:58.489Z,45.18
2019-04-01T18:33:25.654Z,47.90
2019-04-01T18:35:54.250Z,46.46
2019-04-01T18:38:21.447Z,45.45
2019-04-01T18:40:48.640Z,44.98
2019-04-01T18:43:16.293Z,44.83
2019-04-01T18:45:43.477Z,45.36
2019-04-01T18:48:10.627Z,45.83
2019-04-01T18:50:37.873Z,46.10
2019-04-01T18:53:06.388Z,46.30
2019-04-01T18:55:34.511Z,46.20
2019-04-01T18:58:01.719Z,46.23
2019-04-01T19:00:29.475Z,46.56
2019-04-01T19:02:56.788Z,45.74
2019-04-01T19:05:24.326Z,45.41
2019-04-01T19:07:51.481Z,45.72
2019-04-01T19:10:18.957Z,46.07
2019-04-01T19:12:46.163Z,46.01
2019-04-01T19:15:13.345Z,46.64
2019-04-01T19:17:40.441Z,46.28
2019-04-01T19:20:07.851Z,46.16
2019-04-01T19:22:35.013Z,46.19
2019-04-01T19:25:02.260Z,46.51
2019-04-01T19:27:29.506Z,46.79
2019-04-01T19:29:56.801Z,47.21
2019-04-01T19:32:27.151Z,47.64
2019-04-01T19:34:53.495Z,48.18
2019-04-01T19:37:20.930Z,48.66
2019-04-01T19:39:48.144Z,48.84
2019-04-01T19:42:15.609Z,48.96
2019-04-01T19:44:43.571Z,49.15
2019-04-01T19:47:10.737Z,49.30
2019-04-01T19:49:37.930Z,49.38
2019-04-01T19:52:05.118Z,49.68
2019-04-01T19:54:34.049Z,49.91
2019-04-01T19:57:01.429Z,49.99
2019-04-01T19:59:28.633Z,50.16
2019-04-01T20:01:56.009Z,50.19
2019-04-01T20:04:23.725Z,50.25
2019-04-01T20:06:51.163Z,50.42
2019-04-01T20:09:18.487Z,50.62
2019-04-01T20:11:45.725Z,50.80
2019-04-01T20:14:12.947Z,51.00
2019-04-01T20:16:41.106Z,51.16
2019-04-01T20:19:08.682Z,51.30
2019-04-01T20:21:36.139Z,51.41
2019-04-01T20:24:03.512Z,51.53
2019-04-01T20:26:30.761Z,51.63
2019-04-01T20:28:58.121Z,51.88
2019-04-01T20:31:25.335Z,51.85
2019-04-01T20:33:52.548Z,51.98
2019-04-01T20:36:28.432Z,52.14
2019-04-01T20:38:48.665Z,52.16
2019-04-01T20:41:16.467Z,52.37
2019-04-01T20:43:44.183Z,52.49
2019-04-01T20:46:11.651Z,52.82
2019-04-01T20:48:38.897Z,52.92
2019-04-01T20:51:06.064Z,52.86
2019-04-01T20:53:33.253Z,53.00
2019-04-01T20:56:00.470Z,53.09
2019-04-01T20:58:27.703Z,53.20
2019-04-01T21:00:54.889Z,53.30
2019-04-01T21:03:22.072Z,53.29
2019-04-01T21:05:49.472Z,53.40
2019-04-01T21:08:16.889Z,53.36
2019-04-01T21:10:44.359Z,53.57
2019-04-01T21:13:11.833Z,53.71
2019-04-01T21:15:39.008Z,53.83
2019-04-01T21:18:06.114Z,53.90
2019-04-01T21:20:33.333Z,54.09
2019-04-01T21:23:00.592Z,54.43
2019-04-01T21:25:27.735Z,54.67
2019-04-01T21:27:54.948Z,54.95
2019-04-01T21:30:22.510Z,55.12
2019-04-01T21:32:49.860Z,55.25
2019-04-01T21:35:17.438Z,55.46
2019-04-01T21:37:44.886Z,55.63
2019-04-01T21:40:12.543Z,55.75
2019-04-01T21:42:39.748Z,55.88
2019-04-01T21:45:07.292Z,55.98
2019-04-01T21:47:34.557Z,55.95
2019-04-01T21:50:02.223Z,55.94
2019-04-01T21:52:29.750Z,55.98
2019-04-01T21:54:57.469Z,55.95
2019-04-01T21:57:24.698Z,56.17
2019-04-01T21:59:52.198Z,55.96
2019-04-01T22:02:19.354Z,56.12
2019-04-01T22:04:46.577Z,56.30
2019-04-01T22:07:13.683Z,56.46
2019-04-01T22:09:40.921Z,56.40
2019-04-01T22:12:08.074Z,56.45
2019-04-01T22:14:35.262Z,56.78
2019-04-01T22:17:02.915Z,56.94
2019-04-01T22:19:30.143Z,56.91
2019-04-01T22:21:57.613Z,57.01
2019-04-01T22:24:25.110Z,57.11
2019-04-01T22:26:52.264Z,56.99
2019-04-01T22:29:20.089Z,57.20
2019-04-01T22:31:47.919Z,57.24
2019-04-01T22:34:15.140Z,57.26
2019-04-01T22:36:42.318Z,57.46
2019-04-01T22:39:09.935Z,57.62
2019-04-01T22:41:37.091Z,57.83
2019-04-01T22:44:04.282Z,57.93
2019-04-01T22:46:31.457Z,58.10
2019-04-01T22:48:58.575Z,58.11
2019-04-01T22:51:26.076Z,58.12
2019-04-01T22:53:53.283Z,58.29
2019-04-01T22:56:20.442Z,58.76
2019-04-01T22:58:47.921Z,59.08
2019-04-01T23:01:16.023Z,59.14
2019-04-01T23:03:43.313Z,59.36
2019-04-01T23:06:10.504Z,59.42
2019-04-01T23:08:37.689Z,59.55
2019-04-01T23:11:04.845Z,59.60
2019-04-01T23:13:32.040Z,59.52
2019-04-01T23:15:59.233Z,59.44
2019-04-01T23:18:26.415Z,59.48
2019-04-01T23:20:53.643Z,59.33
2019-04-01T23:23:21.099Z,59.38
2019-04-01T23:25:48.137Z,59.46
2019-04-01T23:28:15.326Z,59.52
2019-04-01T23:30:42.419Z,59.53
2019-04-01T23:33:09.570Z,59.45
2019-04-01T23:35:36.664Z,59.52
2019-04-01T23:38:03.893Z,59.49
2019-04-01T23:40:31.367Z,59.66
2019-04-01T23:42:59.551Z,59.87
2019-04-01T23:45:26.724Z,59.96
2019-04-01T23:47:53.780Z,60.32
2019-04-01T23:50:20.998Z,60.50
2019-04-01T23:52:48.197Z,60.54
2019-04-01T23:55:15.447Z,60.46
2019-04-01T23:57:42.661Z,60.51
